Time;durP1;ratioP1;P1;durP2;ratioP2;P2;SDS_P1;SDS_P2;PMS_P1;PMS_P2;Temp;Humidity;BMP_temperature;BMP_pressure;BME280_temperature;BME280_humidity;BME280_pressure;Samples;Min_cycle;Max_cycle;Signal;HPM_P1;HPM_P2
2021/08/02 00:01:48;;;;;;;11.90;8.35;;;15.00;99.90;;;;;;4961583;28;20058;-63
2021/08/02 00:04:18;;;;;;;15.43;9.27;;;15.00;99.90;;;;;;4970518;28;20041;-65
2021/08/02 00:06:52;;;;;;;10.60;9.10;;;15.00;99.90;;;;;;4971528;28;20118;-64
2021/08/02 00:09:40;;;;;;;11.52;8.82;;;15.00;99.90;;;;;;4970558;28;20031;-63
2021/08/02 00:12:10;;;;;;;14.68;9.25;;;15.00;99.90;;;;;;4973049;28;20042;-64
2021/08/02 00:14:41;;;;;;;14.43;10.15;;;15.00;99.90;;;;;;4969700;28;20397;-62
2021/08/02 00:17:06;;;;;;;15.13;10.48;;;15.00;99.90;;;;;;4972106;28;20512;-63
2021/08/02 00:19:32;;;;;;;14.82;10.05;;;15.00;99.90;;;;;;4972417;28;20043;-64
2021/08/02 00:21:58;;;;;;;14.48;9.55;;;15.00;99.90;;;;;;4970959;28;20504;-64
2021/08/02 00:24:25;;;;;;;12.73;8.85;;;15.10;99.90;;;;;;4972487;28;20029;-62
2021/08/02 00:26:53;;;;;;;12.15;9.35;;;15.00;99.90;;;;;;4986451;28;20552;-59
2021/08/02 00:29:21;;;;;;;13.50;10.50;;;15.10;99.90;;;;;;4969503;28;20035;-63
2021/08/02 00:31:47;;;;;;;12.05;9.40;;;15.10;99.90;;;;;;4968634;28;20035;-64
2021/08/02 00:34:13;;;;;;;14.68;11.60;;;15.10;99.90;;;;;;4971824;28;20102;-64
2021/08/02 00:36:43;;;;;;;12.70;9.75;;;15.10;99.90;;;;;;4972131;28;20826;-65
2021/08/02 00:39:42;;;;;;;13.55;9.27;;;15.20;99.90;;;;;;4967553;28;20039;-63
2021/08/02 00:42:40;;;;;;;13.65;10.63;;;15.20;99.90;;;;;;4971678;28;20078;-63
2021/08/02 00:45:22;;;;;;;11.57;10.38;;;15.10;99.90;;;;;;4967663;28;20117;-62
2021/08/02 00:47:51;;;;;;;12.32;9.88;;;15.20;99.90;;;;;;4967924;28;20081;-64
2021/08/02 00:50:24;;;;;;;12.32;10.30;;;15.20;99.90;;;;;;4968971;28;20050;-64
2021/08/02 00:53:02;;;;;;;14.07;11.57;;;15.20;99.90;;;;;;4967610;28;20031;-66
2021/08/02 00:55:30;;;;;;;14.43;11.50;;;15.20;99.90;;;;;;4971888;28;20029;-65
2021/08/02 00:58:00;;;;;;;14.60;11.68;;;15.20;99.90;;;;;;4971275;28;20030;-62
2021/08/02 01:00:25;;;;;;;15.60;11.93;;;15.20;99.90;;;;;;4968143;28;20447;-66
2021/08/02 01:02:52;;;;;;;13.88;12.27;;;15.20;99.90;;;;;;4967196;28;20027;-64
2021/08/02 01:05:19;;;;;;;16.48;11.98;;;15.20;99.90;;;;;;4968591;28;20484;-64
2021/08/02 01:07:54;;;;;;;18.27;13.32;;;15.10;99.90;;;;;;4958899;28;20109;-64
2021/08/02 01:10:20;;;;;;;18.08;13.15;;;15.10;99.90;;;;;;4961089;28;20425;-65
2021/08/02 01:12:48;;;;;;;18.58;12.27;;;15.10;99.90;;;;;;4957129;28;20061;-65
2021/08/02 01:15:16;;;;;;;23.38;13.48;;;15.10;99.90;;;;;;4962293;28;20034;-64
2021/08/02 01:17:43;;;;;;;16.23;12.73;;;15.10;99.90;;;;;;4955980;28;20117;-65
2021/08/02 01:20:11;;;;;;;21.42;14.10;;;15.00;99.90;;;;;;4958855;28;20058;-64
2021/08/02 01:22:38;;;;;;;20.38;13.93;;;15.00;99.90;;;;;;4961646;28;20059;-63
2021/08/02 01:25:38;;;;;;;17.17;13.07;;;15.00;99.90;;;;;;4963457;28;20041;-66
2021/08/02 01:28:13;;;;;;;19.23;13.82;;;15.00;99.90;;;;;;4968372;28;20027;-65
2021/08/02 01:30:39;;;;;;;16.05;12.98;;;15.00;99.90;;;;;;4970447;28;20027;-65
2021/08/02 01:33:05;;;;;;;21.48;14.05;;;15.10;99.90;;;;;;4967875;28;20034;-65
2021/08/02 01:35:31;;;;;;;19.92;14.18;;;15.10;99.90;;;;;;4970138;28;20526;-64
2021/08/02 01:37:57;;;;;;;21.20;14.77;;;15.10;99.90;;;;;;4970787;28;20034;-65
2021/08/02 01:40:23;;;;;;;19.88;14.70;;;15.10;99.90;;;;;;4967916;28;20030;-65
2021/08/02 01:42:48;;;;;;;20.10;14.23;;;15.10;99.90;;;;;;4968370;28;20034;-64
2021/08/02 01:45:14;;;;;;;19.85;13.82;;;15.10;99.90;;;;;;4968397;28;20034;-65
2021/08/02 01:47:44;;;;;;;19.88;13.82;;;15.10;99.90;;;;;;4965936;28;20027;-64
2021/08/02 01:50:57;;;;;;;18.77;14.77;;;15.10;99.90;;;;;;4975554;28;20085;-64
2021/08/02 01:54:02;;;;;;;20.13;13.95;;;15.10;99.90;;;;;;4945546;28;20039;-64
2021/08/02 01:56:54;;;;;;;17.45;14.38;;;15.10;99.90;;;;;;4956383;28;20030;-64
2021/08/02 01:59:22;;;;;;;22.08;15.35;;;15.00;99.90;;;;;;4960811;28;20034;-65
2021/08/02 02:02:03;;;;;;;19.35;15.23;;;15.00;99.90;;;;;;4968653;28;20058;-65
2021/08/02 02:04:33;;;;;;;21.13;14.95;;;15.00;99.90;;;;;;4968106;28;20090;-64
2021/08/02 02:07:01;;;;;;;22.13;15.52;;;15.00;99.90;;;;;;4968604;28;20050;-65
2021/08/02 02:09:29;;;;;;;17.75;15.75;;;15.00;99.90;;;;;;4970620;28;20402;-59
2021/08/02 02:11:56;;;;;;;22.13;16.08;;;15.00;99.90;;;;;;4975940;28;20088;-65
2021/08/02 02:14:26;;;;;;;22.17;14.77;;;15.10;99.90;;;;;;4967407;28;20038;-64
2021/08/02 02:16:55;;;;;;;18.90;14.50;;;15.10;99.90;;;;;;4968987;28;20047;-65
2021/08/02 02:19:23;;;;;;;19.38;15.52;;;15.10;99.90;;;;;;4968189;28;20509;-64
2021/08/02 02:21:50;;;;;;;19.35;15.45;;;15.10;99.90;;;;;;4968295;28;20089;-65
2021/08/02 02:24:17;;;;;;;18.90;14.30;;;15.10;99.90;;;;;;4966411;28;20662;-64
2021/08/02 02:26:45;;;;;;;22.52;14.25;;;15.20;99.90;;;;;;4962531;28;20101;-64
2021/08/02 02:29:11;;;;;;;19.77;14.57;;;15.20;99.90;;;;;;4964946;28;20027;-65
2021/08/02 02:31:38;;;;;;;23.88;16.38;;;15.20;99.90;;;;;;4968778;28;20054;-65
2021/08/02 02:34:06;;;;;;;22.02;15.82;;;15.20;99.90;;;;;;4967755;28;20114;-64
2021/08/02 02:36:34;;;;;;;19.33;16.27;;;15.20;99.90;;;;;;4966859;28;20027;-65
2021/08/02 02:39:01;;;;;;;22.58;16.25;;;15.20;99.90;;;;;;4968522;28;20555;-64
2021/08/02 02:41:27;;;;;;;26.02;15.00;;;15.20;99.90;;;;;;4969057;28;20053;-65
2021/08/02 02:43:54;;;;;;;19.67;14.35;;;15.10;99.90;;;;;;4966788;28;20038;-64
2021/08/02 02:46:21;;;;;;;17.23;13.35;;;15.10;99.90;;;;;;4969652;28;20023;-64
2021/08/02 02:48:49;;;;;;;19.08;13.32;;;15.10;99.90;;;;;;4964406;28;20141;-66
2021/08/02 02:51:16;;;;;;;21.45;12.75;;;15.10;99.90;;;;;;4970761;28;20030;-65
2021/08/02 02:53:43;;;;;;;19.83;12.73;;;15.10;99.90;;;;;;4969066;28;20085;-65
2021/08/02 02:56:13;;;;;;;20.40;14.30;;;15.10;99.90;;;;;;4967992;28;20061;-65
2021/08/02 02:58:40;;;;;;;15.75;12.57;;;15.00;99.90;;;;;;4966745;28;20627;-65
2021/08/02 03:01:07;;;;;;;19.70;15.00;;;15.00;99.90;;;;;;4969730;28;20039;-63
2021/08/02 03:03:39;;;;;;;16.95;13.30;;;15.10;99.90;;;;;;4970650;28;20063;-66
2021/08/02 03:06:05;;;;;;;22.27;13.25;;;15.10;99.90;;;;;;4969754;28;20069;-64
2021/08/02 03:08:34;;;;;;;15.88;12.35;;;15.10;99.90;;;;;;4969970;28;20049;-65
2021/08/02 03:11:01;;;;;;;15.63;12.38;;;15.10;99.90;;;;;;4968808;28;20090;-65
2021/08/02 03:13:27;;;;;;;18.45;12.15;;;15.00;99.90;;;;;;4969908;28;20106;-64
2021/08/02 03:15:52;;;;;;;23.88;17.13;;;15.00;99.90;;;;;;4972908;28;20113;-64
2021/08/02 03:18:18;;;;;;;22.25;17.23;;;15.00;99.90;;;;;;4970426;28;20054;-65
2021/08/02 03:20:44;;;;;;;26.92;17.77;;;14.90;99.90;;;;;;4973090;28;20042;-65
2021/08/02 03:23:32;;;;;;;19.27;15.95;;;14.90;99.90;;;;;;4967213;28;20029;-66
2021/08/02 03:26:09;;;;;;;24.33;15.85;;;14.90;99.90;;;;;;4969157;28;20029;-64
2021/08/02 03:28:47;;;;;;;31.92;16.80;;;14.80;99.90;;;;;;4973280;28;20110;-65
2021/08/02 03:31:26;;;;;;;21.73;16.63;;;14.90;99.90;;;;;;4970509;28;20030;-65
2021/08/02 03:33:53;;;;;;;28.20;18.05;;;14.80;99.90;;;;;;4973688;28;20031;-65
2021/08/02 03:36:20;;;;;;;24.73;18.45;;;14.80;99.90;;;;;;4972924;28;20015;-65
2021/08/02 03:38:49;;;;;;;25.20;19.23;;;14.80;99.90;;;;;;4969908;28;20034;-64
2021/08/02 03:41:15;;;;;;;26.35;19.25;;;14.80;99.90;;;;;;4970505;28;20031;-64
2021/08/02 03:43:42;;;;;;;27.27;18.60;;;14.90;99.90;;;;;;4972164;28;20054;-65
2021/08/02 03:46:09;;;;;;;25.85;18.75;;;14.90;99.90;;;;;;4974430;28;20031;-65
2021/08/02 03:48:37;;;;;;;25.50;17.75;;;14.90;99.90;;;;;;4971745;28;20046;-65
2021/08/02 03:51:04;;;;;;;23.83;17.58;;;14.90;99.90;;;;;;4968830;28;20436;-65
2021/08/02 03:53:44;;;;;;;25.52;17.05;;;14.90;99.90;;;;;;4970069;28;20425;-65
2021/08/02 03:56:12;;;;;;;27.25;18.55;;;14.90;99.90;;;;;;4970298;28;20034;-64
2021/08/02 03:58:38;;;;;;;25.20;18.70;;;14.90;99.90;;;;;;4970934;28;20037;-65
2021/08/02 04:01:04;;;;;;;25.77;17.13;;;15.00;99.90;;;;;;4972619;28;20296;-64
2021/08/02 04:03:30;;;;;;;26.45;18.48;;;15.00;99.90;;;;;;4971508;28;20023;-65
2021/08/02 04:05:57;;;;;;;25.75;19.13;;;15.00;99.90;;;;;;4971482;28;20031;-64
2021/08/02 04:08:24;;;;;;;25.55;19.17;;;15.00;99.90;;;;;;4971744;28;20037;-65
2021/08/02 04:10:49;;;;;;;24.73;17.80;;;15.00;99.90;;;;;;4970987;28;20030;-65
2021/08/02 04:13:17;;;;;;;26.83;17.42;;;15.00;99.90;;;;;;4965650;28;20404;-65
2021/08/02 04:15:43;;;;;;;30.20;17.77;;;15.00;99.90;;;;;;4968733;28;20019;-64
2021/08/02 04:18:09;;;;;;;22.90;17.45;;;15.00;99.90;;;;;;4968976;28;20105;-64
2021/08/02 04:20:35;;;;;;;24.65;17.90;;;15.00;99.90;;;;;;4972192;28;20119;-63
2021/08/02 04:23:00;;;;;;;26.48;17.80;;;15.00;99.90;;;;;;4970351;28;20027;-65
2021/08/02 04:25:26;;;;;;;25.40;17.17;;;15.00;99.90;;;;;;4971341;28;20035;-64
2021/08/02 04:27:51;;;;;;;25.80;17.10;;;15.00;99.90;;;;;;4968340;28;20030;-64
2021/08/02 04:30:17;;;;;;;25.98;19.30;;;15.00;99.90;;;;;;4972844;28;20037;-64
2021/08/02 04:32:45;;;;;;;23.48;16.65;;;15.00;99.90;;;;;;4972514;28;20402;-59
2021/08/02 04:35:12;;;;;;;21.55;17.85;;;15.00;99.90;;;;;;4967658;28;20034;-64
2021/08/02 04:37:37;;;;;;;23.40;18.35;;;15.00;99.90;;;;;;4969814;28;20022;-64
2021/08/02 04:40:05;;;;;;;23.35;17.65;;;15.10;99.90;;;;;;4970308;28;20078;-64
2021/08/02 04:42:35;;;;;;;25.98;16.60;;;15.10;99.90;;;;;;4970940;28;20031;-65
2021/08/02 04:45:02;;;;;;;25.88;18.70;;;15.10;99.90;;;;;;4972191;28;20606;-65
2021/08/02 04:47:28;;;;;;;25.27;18.40;;;15.10;99.90;;;;;;4966637;28;20813;-64
2021/08/02 04:49:53;;;;;;;21.23;17.52;;;15.10;99.90;;;;;;4971266;28;20109;-65
2021/08/02 04:52:19;;;;;;;24.48;17.65;;;15.10;99.90;;;;;;4969279;28;20030;-64
2021/08/02 04:54:45;;;;;;;26.85;18.20;;;15.20;99.90;;;;;;4970954;28;20109;-63
2021/08/02 04:57:11;;;;;;;27.75;18.55;;;15.10;99.90;;;;;;4972069;28;20479;-64
2021/08/02 04:59:36;;;;;;;33.72;19.80;;;15.10;99.90;;;;;;4966436;28;20034;-64
2021/08/02 05:02:02;;;;;;;25.88;18.55;;;15.20;99.90;;;;;;4970334;28;20039;-65
2021/08/02 05:04:28;;;;;;;27.38;18.52;;;15.20;99.90;;;;;;4970369;28;20039;-64
2021/08/02 05:06:53;;;;;;;26.02;17.95;;;15.20;99.90;;;;;;4969514;28;20085;-65
2021/08/02 05:09:19;;;;;;;23.52;17.20;;;15.20;99.90;;;;;;4971548;28;20038;-65
2021/08/02 05:11:44;;;;;;;30.15;18.45;;;15.30;99.90;;;;;;4969960;28;20738;-65
2021/08/02 05:14:10;;;;;;;27.33;16.98;;;15.30;99.90;;;;;;4969669;28;20029;-64
2021/08/02 05:16:36;;;;;;;21.45;15.68;;;15.40;99.90;;;;;;4975039;28;20058;-64
2021/08/02 05:19:01;;;;;;;19.70;15.65;;;15.40;99.90;;;;;;4960643;28;20139;-64
2021/08/02 05:21:27;;;;;;;23.55;16.77;;;15.50;99.90;;;;;;4969553;28;20031;-65
2021/08/02 05:23:53;;;;;;;21.83;16.92;;;15.50;99.90;;;;;;4970686;28;20030;-65
2021/08/02 05:26:19;;;;;;;25.88;17.55;;;15.60;99.90;;;;;;4970856;28;20042;-65
2021/08/02 05:28:44;;;;;;;23.50;17.17;;;15.60;99.90;;;;;;4963486;28;20039;-60
2021/08/02 05:31:10;;;;;;;20.70;16.95;;;15.60;99.90;;;;;;4970480;28;20023;-64
2021/08/02 05:33:35;;;;;;;22.17;15.57;;;15.60;99.90;;;;;;4969025;28;20033;-65
2021/08/02 05:36:03;;;;;;;21.63;17.05;;;15.70;99.90;;;;;;4970911;28;20159;-64
2021/08/02 05:38:29;;;;;;;23.25;15.32;;;15.70;99.90;;;;;;4969506;28;20033;-65
2021/08/02 05:40:55;;;;;;;21.85;15.88;;;15.70;99.90;;;;;;4972367;28;20035;-65
2021/08/02 05:43:20;;;;;;;20.02;15.50;;;15.70;99.90;;;;;;4965503;28;20404;-65
2021/08/02 05:45:46;;;;;;;19.30;15.40;;;15.70;99.90;;;;;;4941919;28;21527;-63
2021/08/02 05:48:12;;;;;;;23.85;16.52;;;15.80;99.90;;;;;;4933435;28;20070;-64
2021/08/02 05:50:37;;;;;;;21.20;15.15;;;15.80;99.90;;;;;;4967973;28;20106;-62
2021/08/02 05:53:03;;;;;;;18.85;15.15;;;15.90;99.90;;;;;;4971236;28;20327;-65
2021/08/02 05:55:28;;;;;;;18.35;15.15;;;16.00;99.90;;;;;;4968583;28;20870;-65
2021/08/02 05:57:54;;;;;;;20.85;15.30;;;16.10;99.90;;;;;;4968792;28;20038;-66
2021/08/02 06:00:20;;;;;;;19.77;14.38;;;16.20;99.90;;;;;;4969585;28;20027;-63
2021/08/02 06:02:45;;;;;;;17.95;13.80;;;16.30;99.90;;;;;;4970603;28;20369;-59
2021/08/02 06:05:11;;;;;;;22.77;13.90;;;16.30;99.90;;;;;;4973849;28;20587;-63
2021/08/02 06:07:41;;;;;;;22.58;14.02;;;16.30;99.90;;;;;;4970367;28;20033;-62
2021/08/02 06:10:08;;;;;;;21.50;14.85;;;16.30;99.90;;;;;;4972919;28;20031;-62
2021/08/02 06:12:33;;;;;;;19.88;12.48;;;16.30;99.90;;;;;;4970776;28;20023;-63
2021/08/02 06:14:59;;;;;;;19.60;13.43;;;16.40;99.90;;;;;;4970953;28;20073;-65
2021/08/02 06:17:24;;;;;;;19.67;13.18;;;16.50;99.90;;;;;;4968586;28;20023;-63
2021/08/02 06:19:50;;;;;;;21.00;14.73;;;16.60;99.90;;;;;;4968524;28;20085;-63
2021/08/02 06:22:15;;;;;;;19.67;14.60;;;16.50;99.90;;;;;;4967867;28;20138;-62
2021/08/02 06:24:42;;;;;;;19.90;15.60;;;16.50;99.90;;;;;;4971306;28;20168;-62
2021/08/02 06:27:08;;;;;;;22.77;18.77;;;16.40;99.90;;;;;;4968743;28;20034;-61
2021/08/02 06:29:33;;;;;;;23.25;16.92;;;16.30;99.90;;;;;;4975472;28;20031;-63
2021/08/02 06:31:59;;;;;;;24.02;17.15;;;16.30;99.90;;;;;;4970285;28;20031;-64
2021/08/02 06:34:24;;;;;;;25.83;18.65;;;16.20;99.90;;;;;;4969960;28;20073;-63
2021/08/02 06:36:50;;;;;;;25.45;18.90;;;16.20;99.90;;;;;;4969930;28;20030;-63
2021/08/02 06:39:16;;;;;;;23.95;18.17;;;16.20;99.90;;;;;;4971457;28;20109;-63
2021/08/02 06:41:41;;;;;;;29.08;18.30;;;16.20;99.90;;;;;;4972711;28;20363;-64
2021/08/02 06:44:07;;;;;;;24.75;18.02;;;16.10;99.90;;;;;;4970593;28;20019;-64
2021/08/02 06:46:32;;;;;;;27.30;19.45;;;16.10;99.90;;;;;;4961614;28;20070;-64
2021/08/02 06:48:58;;;;;;;27.98;19.10;;;16.20;99.90;;;;;;4969707;28;20027;-64
2021/08/02 06:51:23;;;;;;;25.88;18.15;;;16.40;99.90;;;;;;4972777;28;20038;-64
2021/08/02 06:53:49;;;;;;;20.52;17.88;;;16.50;99.90;;;;;;4969197;28;20487;-64
2021/08/02 06:56:15;;;;;;;34.58;18.50;;;16.60;99.90;;;;;;4973270;28;20105;-65
2021/08/02 06:58:40;;;;;;;23.00;16.90;;;16.50;99.90;;;;;;4978747;28;20519;-64
2021/08/02 07:01:06;;;;;;;21.77;17.17;;;16.50;99.90;;;;;;4972841;28;20035;-63
2021/08/02 07:03:31;;;;;;;19.80;17.13;;;16.50;99.90;;;;;;4973415;28;20026;-65
2021/08/02 07:05:57;;;;;;;22.45;17.95;;;16.30;99.90;;;;;;4973851;28;20026;-64
2021/08/02 07:08:23;;;;;;;23.98;18.48;;;16.20;99.90;;;;;;4972936;28;20027;-64
2021/08/02 07:10:48;;;;;;;26.27;17.73;;;16.20;99.90;;;;;;4979483;28;20109;-63
2021/08/02 07:13:14;;;;;;;24.65;18.27;;;16.30;99.90;;;;;;4972922;28;20031;-64
2021/08/02 07:15:39;;;;;;;25.05;18.08;;;16.30;99.90;;;;;;4968155;28;20038;-64
2021/08/02 07:18:05;;;;;;;23.20;17.50;;;16.20;99.90;;;;;;4973582;28;20037;-64
2021/08/02 07:20:30;;;;;;;27.38;19.25;;;16.20;99.90;;;;;;4971127;28;20026;-64
2021/08/02 07:22:56;;;;;;;26.02;19.08;;;16.20;99.90;;;;;;4972201;28;20034;-64
2021/08/02 07:25:22;;;;;;;23.75;18.52;;;16.20;99.90;;;;;;4971501;28;20050;-63
2021/08/02 07:27:47;;;;;;;28.35;18.77;;;16.20;99.90;;;;;;4973054;28;20432;-65
2021/08/02 07:30:13;;;;;;;29.20;20.48;;;16.20;99.90;;;;;;4975117;28;20030;-63
2021/08/02 07:32:39;;;;;;;27.48;19.42;;;16.20;99.90;;;;;;4973408;28;20380;-64
2021/08/02 07:35:05;;;;;;;29.02;19.83;;;16.30;99.90;;;;;;4972940;28;20031;-64
2021/08/02 07:37:31;;;;;;;29.45;22.92;;;16.40;99.90;;;;;;4967094;28;20485;-64
2021/08/02 07:39:56;;;;;;;31.00;22.48;;;16.50;99.90;;;;;;4973254;28;20030;-64
2021/08/02 07:42:22;;;;;;;26.80;21.95;;;16.60;99.90;;;;;;4974211;28;20035;-63
2021/08/02 07:44:47;;;;;;;30.35;20.55;;;16.60;99.90;;;;;;4980082;28;20101;-63
2021/08/02 07:47:13;;;;;;;26.73;20.10;;;16.60;99.90;;;;;;4960409;28;20394;-64
2021/08/02 07:49:39;;;;;;;25.80;19.48;;;16.70;99.90;;;;;;4972898;28;20081;-63
2021/08/02 07:52:05;;;;;;;26.65;19.42;;;16.70;99.90;;;;;;4972740;28;20043;-64
2021/08/02 07:54:30;;;;;;;24.05;17.52;;;16.70;99.90;;;;;;4972024;28;20030;-64
2021/08/02 07:56:56;;;;;;;29.10;18.45;;;16.60;99.90;;;;;;4968223;28;20035;-65
2021/08/02 07:59:21;;;;;;;20.63;17.83;;;16.60;99.90;;;;;;4972453;28;20027;-65
2021/08/02 08:01:47;;;;;;;23.55;18.23;;;16.60;99.90;;;;;;4968315;28;20076;-64
2021/08/02 08:04:12;;;;;;;24.25;17.77;;;16.50;99.90;;;;;;4968782;28;20023;-64
2021/08/02 08:06:38;;;;;;;24.10;17.92;;;16.40;99.90;;;;;;4974597;28;20164;-64
2021/08/02 08:09:04;;;;;;;23.25;18.30;;;16.30;99.90;;;;;;4972765;28;20101;-64
2021/08/02 08:11:29;;;;;;;25.00;17.95;;;16.30;99.90;;;;;;4972790;28;20034;-63
2021/08/02 08:13:55;;;;;;;28.70;17.77;;;16.20;99.90;;;;;;4972889;28;20443;-64
2021/08/02 08:16:20;;;;;;;27.17;17.10;;;16.20;99.90;;;;;;4972109;28;20039;-63
2021/08/02 08:18:46;;;;;;;24.05;16.73;;;16.30;99.90;;;;;;4971172;28;20039;-63
2021/08/02 08:21:12;;;;;;;21.42;17.92;;;16.30;99.90;;;;;;4970917;28;20077;-65
2021/08/02 08:23:37;;;;;;;23.30;15.77;;;16.40;99.90;;;;;;4972503;28;20023;-64
2021/08/02 08:26:03;;;;;;;23.42;15.43;;;16.60;99.90;;;;;;4971989;28;20386;-63
2021/08/02 08:28:28;;;;;;;21.08;15.85;;;16.70;99.90;;;;;;4972336;28;20038;-63
2021/08/02 08:30:55;;;;;;;22.13;18.38;;;16.80;99.90;;;;;;4972412;28;20408;-64
2021/08/02 08:33:20;;;;;;;25.80;17.33;;;16.80;99.90;;;;;;4967856;28;20110;-64
2021/08/02 08:35:46;;;;;;;23.80;16.58;;;16.80;99.90;;;;;;4972281;28;20161;-64
2021/08/02 08:38:11;;;;;;;28.13;16.77;;;16.90;99.90;;;;;;4972179;28;20031;-63
2021/08/02 08:40:37;;;;;;;20.23;16.08;;;17.00;99.90;;;;;;4975379;28;20049;-63
2021/08/02 08:43:04;;;;;;;19.50;14.35;;;17.10;99.90;;;;;;4971620;28;20038;-64
2021/08/02 08:45:30;;;;;;;21.55;14.02;;;17.00;99.90;;;;;;4975377;28;20026;-64
2021/08/02 08:47:56;;;;;;;21.15;13.60;;;17.10;99.90;;;;;;4959615;28;20132;-64
2021/08/02 08:50:24;;;;;;;19.77;12.73;;;17.30;99.90;;;;;;4968500;28;20031;-64
2021/08/02 08:52:54;;;;;;;16.80;12.43;;;17.40;99.90;;;;;;4973303;28;20062;-63
2021/08/02 08:55:20;;;;;;;19.25;13.20;;;17.40;99.90;;;;;;4971039;28;20089;-63
2021/08/02 08:57:46;;;;;;;21.52;13.00;;;17.50;99.90;;;;;;4972938;28;20034;-65
2021/08/02 09:00:23;;;;;;;16.48;11.95;;;17.60;99.90;;;;;;4973963;28;20416;-64
2021/08/02 09:02:50;;;;;;;17.70;11.63;;;17.70;99.90;;;;;;4973807;28;20035;-63
2021/08/02 09:05:16;;;;;;;20.98;10.40;;;18.00;99.90;;;;;;4969862;28;20023;-64
2021/08/02 09:07:46;;;;;;;17.00;9.95;;;18.10;99.90;;;;;;4976482;28;20042;-65
2021/08/02 09:10:17;;;;;;;15.90;10.18;;;18.40;99.90;;;;;;4972094;28;20592;-65
2021/08/02 09:12:53;;;;;;;12.77;9.38;;;18.60;99.90;;;;;;4971194;28;20170;-64
2021/08/02 09:15:32;;;;;;;21.25;12.30;;;18.90;99.90;;;;;;4965052;28;20029;-65
2021/08/02 09:17:58;;;;;;;20.17;11.02;;;19.10;99.90;;;;;;4969472;28;20026;-65
2021/08/02 09:20:25;;;;;;;14.85;10.43;;;18.90;99.90;;;;;;4975103;28;20046;-64
2021/08/02 09:22:52;;;;;;;20.88;10.70;;;18.80;99.90;;;;;;4971589;28;20034;-64
2021/08/02 09:25:25;;;;;;;16.25;10.82;;;18.90;99.90;;;;;;4971798;28;20106;-65
2021/08/02 09:27:51;;;;;;;23.85;10.15;;;18.90;99.90;;;;;;4966572;28;20058;-65
2021/08/02 09:30:20;;;;;;;12.70;8.85;;;19.10;99.90;;;;;;4972418;28;20034;-64
2021/08/02 09:32:50;;;;;;;14.07;8.65;;;19.50;99.90;;;;;;4970331;28;20027;-62
2021/08/02 09:35:39;;;;;;;15.25;9.48;;;19.50;99.90;;;;;;4972312;28;20066;-64
2021/08/02 09:38:06;;;;;;;13.43;8.00;;;19.10;99.90;;;;;;4966786;28;20496;-65
2021/08/02 09:40:43;;;;;;;12.73;8.60;;;18.90;99.90;;;;;;4975637;28;20066;-64
2021/08/02 09:43:12;;;;;;;14.32;7.00;;;18.90;99.90;;;;;;4971018;28;20026;-65
2021/08/02 09:45:44;;;;;;;13.10;6.53;;;19.00;99.90;;;;;;4962971;28;20362;-64
2021/08/02 09:48:10;;;;;;;9.88;6.47;;;19.00;99.90;;;;;;4967668;28;20073;-64
2021/08/02 09:50:36;;;;;;;11.02;6.80;;;18.90;99.90;;;;;;4975340;28;20022;-64
2021/08/02 09:53:02;;;;;;;11.48;7.07;;;19.10;99.90;;;;;;4964414;28;20054;-64
2021/08/02 09:55:27;;;;;;;21.27;7.50;;;19.10;99.90;;;;;;4964041;28;20061;-64
2021/08/02 09:57:55;;;;;;;10.25;6.68;;;19.00;99.90;;;;;;4971464;28;20035;-64
2021/08/02 10:00:21;;;;;;;14.15;7.75;;;19.10;99.90;;;;;;4973366;28;20030;-64
2021/08/02 10:02:49;;;;;;;15.73;6.95;;;19.20;99.90;;;;;;4970614;28;20025;-62
2021/08/02 10:05:18;;;;;;;19.55;8.10;;;19.40;99.90;;;;;;4970805;28;20026;-63
2021/08/02 10:07:46;;;;;;;16.17;7.25;;;19.00;99.90;;;;;;4973293;28;20115;-64
2021/08/02 10:10:16;;;;;;;20.48;7.88;;;18.90;99.90;;;;;;4968960;28;20031;-64
2021/08/02 10:12:44;;;;;;;14.55;6.45;;;18.90;99.90;;;;;;4969204;28;20042;-63
2021/08/02 10:15:19;;;;;;;16.90;6.97;;;18.80;99.90;;;;;;4971261;28;20019;-64
2021/08/02 10:17:57;;;;;;;16.50;6.18;;;18.60;99.90;;;;;;4969965;28;20027;-64
2021/08/02 10:20:25;;;;;;;15.60;6.03;;;18.80;99.90;;;;;;4969154;28;20038;-64
2021/08/02 10:22:52;;;;;;;14.05;5.50;;;18.80;99.90;;;;;;4971090;28;20029;-65
2021/08/02 10:25:18;;;;;;;14.68;5.07;;;18.90;99.90;;;;;;4972377;28;20023;-63
2021/08/02 10:27:43;;;;;;;13.43;5.20;;;18.90;99.90;;;;;;4970126;28;20146;-63
2021/08/02 10:30:25;;;;;;;15.57;5.30;;;19.30;99.90;;;;;;4965864;28;20362;-64
2021/08/02 10:32:52;;;;;;;14.13;5.32;;;19.30;99.90;;;;;;4969092;28;20031;-63
2021/08/02 10:35:36;;;;;;;15.65;5.47;;;19.20;99.90;;;;;;4975529;28;20089;-62
2021/08/02 10:38:05;;;;;;;14.30;5.43;;;19.80;99.90;;;;;;4970371;28;20396;-61
2021/08/02 10:40:45;;;;;;;9.90;5.55;;;20.50;99.90;;;;;;4969971;28;20112;-64
2021/08/02 10:43:11;;;;;;;11.05;5.82;;;20.60;99.90;;;;;;4970487;28;20034;-65
2021/08/02 10:45:46;;;;;;;15.32;5.93;;;21.00;99.90;;;;;;4972772;28;20072;-64
2021/08/02 10:48:22;;;;;;;15.55;5.47;;;21.30;99.90;;;;;;4965899;28;20053;-65
2021/08/02 10:50:48;;;;;;;11.55;5.10;;;21.90;99.90;;;;;;4962157;28;20023;-59
2021/08/02 10:53:17;;;;;;;8.75;4.35;;;22.10;99.90;;;;;;4971041;28;20073;-64
2021/08/02 10:55:49;;;;;;;9.40;4.30;;;22.60;99.90;;;;;;4971917;28;20539;-64
2021/08/02 10:58:28;;;;;;;6.88;4.43;;;22.60;99.50;;;;;;4970095;28;20181;-65
2021/08/02 11:00:55;;;;;;;7.82;4.45;;;21.80;99.20;;;;;;4970503;28;20031;-64
2021/08/02 11:03:35;;;;;;;6.70;4.40;;;22.10;99.20;;;;;;4962752;28;20065;-65
2021/08/02 11:06:19;;;;;;;6.75;3.92;;;22.40;98.70;;;;;;4969798;28;20871;-64
2021/08/02 11:08:48;;;;;;;5.20;4.07;;;22.90;98.80;;;;;;4964743;28;20393;-64
2021/08/02 11:11:34;;;;;;;9.60;4.32;;;23.00;98.90;;;;;;4967503;28;20469;-64
2021/08/02 11:14:11;;;;;;;8.65;4.00;;;23.00;97.50;;;;;;4964216;28;20492;-64
2021/08/02 11:16:49;;;;;;;14.27;4.68;;;22.70;97.80;;;;;;4969882;28;20027;-65
2021/08/02 11:19:22;;;;;;;8.63;4.10;;;22.50;97.80;;;;;;4967386;28;20066;-64
2021/08/02 11:22:02;;;;;;;7.85;4.20;;;22.10;97.70;;;;;;4970753;28;20035;-64
2021/08/02 11:24:36;;;;;;;7.35;3.67;;;21.40;99.20;;;;;;4970721;28;20031;-65
2021/08/02 11:27:04;;;;;;;8.95;3.60;;;20.90;99.90;;;;;;4972005;28;20110;-64
2021/08/02 11:29:32;;;;;;;12.65;4.35;;;20.70;99.90;;;;;;4976019;28;20027;-65
2021/08/02 11:32:12;;;;;;;7.70;3.67;;;20.40;99.90;;;;;;4970587;28;20035;-65
2021/08/02 11:34:54;;;;;;;9.57;4.55;;;20.70;99.90;;;;;;4979027;28;20054;-64
2021/08/02 11:37:27;;;;;;;13.88;4.13;;;20.90;99.90;;;;;;4972750;28;20065;-61
2021/08/02 11:40:01;;;;;;;10.40;3.88;;;21.40;99.90;;;;;;4966779;28;20031;-64
2021/08/02 11:42:31;;;;;;;8.80;4.20;;;22.10;99.50;;;;;;4968112;28;20664;-64
2021/08/02 11:44:59;;;;;;;12.48;4.28;;;22.20;97.20;;;;;;4968786;28;20030;-64
2021/08/02 11:47:27;;;;;;;7.95;3.40;;;22.50;97.60;;;;;;4970119;28;20511;-64
2021/08/02 11:49:55;;;;;;;7.28;3.97;;;22.40;98.60;;;;;;4969840;28;20028;-64
2021/08/02 11:52:23;;;;;;;10.98;4.20;;;22.50;98.40;;;;;;4962730;28;20385;-64
2021/08/02 11:55:02;;;;;;;11.88;4.70;;;23.00;96.50;;;;;;4974704;28;20097;-60
2021/08/02 11:57:28;;;;;;;7.28;3.85;;;22.80;96.50;;;;;;4962807;28;20050;-64
2021/08/02 12:00:07;;;;;;;6.32;3.45;;;22.60;95.70;;;;;;4959388;28;20050;-65
2021/08/02 12:02:45;;;;;;;7.72;3.08;;;22.10;98.20;;;;;;4962893;28;20113;-64
2021/08/02 12:05:25;;;;;;;9.02;3.80;;;21.70;98.80;;;;;;4965025;28;20033;-64
2021/08/02 12:07:51;;;;;;;6.78;3.83;;;21.40;98.30;;;;;;4967049;28;20035;-63
2021/08/02 12:10:22;;;;;;;11.02;3.45;;;21.90;98.20;;;;;;4970233;28;20014;-66
2021/08/02 12:13:07;;;;;;;5.10;3.42;;;22.20;97.90;;;;;;4955631;28;20081;-62
2021/08/02 12:15:34;;;;;;;7.32;3.63;;;22.70;97.60;;;;;;4971237;28;20030;-65
2021/08/02 12:18:00;;;;;;;8.80;3.70;;;22.90;96.90;;;;;;4972291;28;20019;-64
2021/08/02 12:20:36;;;;;;;11.93;3.72;;;23.00;96.70;;;;;;4970649;28;20039;-65
2021/08/02 12:23:08;;;;;;;7.28;3.75;;;22.90;95.60;;;;;;4961688;28;20125;-63
2021/08/02 12:25:35;;;;;;;5.55;3.67;;;22.90;96.10;;;;;;4979321;28;20085;-63
2021/08/02 12:28:01;;;;;;;8.82;3.35;;;23.10;95.70;;;;;;4972114;28;20110;-64
2021/08/02 12:30:27;;;;;;;7.13;3.10;;;23.10;95.50;;;;;;4971887;28;20101;-65
2021/08/02 12:32:53;;;;;;;7.80;2.97;;;22.80;96.10;;;;;;4972501;28;20027;-63
2021/08/02 12:35:19;;;;;;;4.80;3.00;;;22.60;96.40;;;;;;4971728;28;20038;-64
2021/08/02 12:37:46;;;;;;;5.22;2.97;;;22.80;95.60;;;;;;4971042;28;20068;-63
2021/08/02 12:40:17;;;;;;;6.95;3.80;;;22.80;94.20;;;;;;4972430;28;20516;-63